Time;durP1;ratioP1;P1;durP2;ratioP2;P2;SDS_P1;SDS_P2;PMS_P1;PMS_P2;Temp;Humidity;BMP_temperature;BMP_pressure;BME280_temperature;BME280_humidity;BME280_pressure;Samples;Min_cycle;Max_cycle;Signal;HPM_P1;HPM_P2
2021/05/19 00:01:36;;;;;;;10.13;5.70;;;9.00;99.90;;;;;;5077329;28;20052;-75
2021/05/19 00:04:02;;;;;;;12.68;6.72;;;9.00;99.90;;;;;;5085646;28;20477;-75
2021/05/19 00:06:28;;;;;;;10.02;5.07;;;9.00;99.90;;;;;;5085355;28;20036;-75
2021/05/19 00:08:53;;;;;;;10.52;5.22;;;8.90;99.90;;;;;;5083938;28;20088;-74
2021/05/19 00:11:19;;;;;;;11.52;5.57;;;8.90;99.90;;;;;;5084115;28;20444;-74
2021/05/19 00:13:45;;;;;;;12.57;5.82;;;8.90;99.90;;;;;;5083733;28;20029;-74
2021/05/19 00:16:11;;;;;;;10.73;6.05;;;9.00;99.90;;;;;;5085482;28;20479;-75
2021/05/19 00:18:37;;;;;;;12.88;6.07;;;8.90;99.90;;;;;;5083626;28;20032;-74
2021/05/19 00:21:04;;;;;;;14.23;6.05;;;8.90;99.90;;;;;;5084714;28;20028;-74
2021/05/19 00:23:30;;;;;;;14.18;6.05;;;8.90;99.90;;;;;;5084662;28;20028;-75
2021/05/19 00:25:55;;;;;;;12.13;6.60;;;8.90;99.90;;;;;;5083737;28;20031;-74
2021/05/19 00:28:22;;;;;;;11.60;6.20;;;8.90;99.90;;;;;;5083422;28;20029;-73
2021/05/19 00:30:51;;;;;;;10.50;5.57;;;8.90;99.90;;;;;;5084909;28;20025;-74
2021/05/19 00:33:17;;;;;;;9.77;5.40;;;8.90;99.90;;;;;;5083704;28;20039;-74
2021/05/19 00:35:43;;;;;;;14.02;6.10;;;8.80;99.90;;;;;;5084713;28;20037;-73
2021/05/19 00:38:08;;;;;;;10.52;5.25;;;8.80;99.90;;;;;;5083426;28;20025;-74
2021/05/19 00:40:34;;;;;;;9.10;5.00;;;8.70;99.90;;;;;;5084532;28;20025;-74
2021/05/19 00:43:00;;;;;;;12.35;5.40;;;8.80;99.90;;;;;;5074260;28;20033;-75
2021/05/19 00:45:26;;;;;;;14.18;6.57;;;8.70;99.90;;;;;;5065020;28;20047;-74
2021/05/19 00:47:51;;;;;;;12.38;6.20;;;8.70;99.90;;;;;;5064485;28;20626;-74
2021/05/19 00:50:27;;;;;;;11.77;6.35;;;8.70;99.90;;;;;;5064857;28;20033;-75
2021/05/19 00:52:53;;;;;;;11.63;5.53;;;8.70;99.90;;;;;;5064411;28;20094;-75
2021/05/19 00:55:18;;;;;;;10.38;5.25;;;8.70;99.90;;;;;;5063128;28;20053;-76
2021/05/19 00:57:45;;;;;;;13.68;5.43;;;8.70;99.90;;;;;;5063181;28;20112;-76
2021/05/19 01:00:19;;;;;;;10.95;4.93;;;8.70;99.90;;;;;;5064248;28;20044;-75
2021/05/19 01:02:45;;;;;;;13.38;6.60;;;8.60;99.90;;;;;;5064206;28;20382;-76
2021/05/19 01:05:19;;;;;;;11.40;5.40;;;8.60;99.90;;;;;;5063462;28;20052;-76
2021/05/19 01:10:29;;;;;;;9.35;5.20;;;8.60;99.90;;;;;;5064908;28;20056;-73
2021/05/19 01:12:54;;;;;;;15.40;7.30;;;8.50;99.90;;;;;;5064852;28;20021;-76
2021/05/19 01:15:20;;;;;;;10.38;6.28;;;8.50;99.90;;;;;;5064183;28;20048;-75
2021/05/19 01:17:46;;;;;;;10.80;5.65;;;8.40;99.90;;;;;;5063230;28;20081;-75
2021/05/19 01:20:13;;;;;;;14.93;6.85;;;8.40;99.90;;;;;;5064465;28;20522;-75
2021/05/19 01:22:39;;;;;;;11.18;5.82;;;8.40;99.90;;;;;;5064072;28;20021;-75
2021/05/19 01:25:05;;;;;;;10.70;5.53;;;8.30;99.90;;;;;;5064648;28;20079;-75
2021/05/19 01:27:31;;;;;;;13.75;6.18;;;8.30;99.90;;;;;;5064404;28;20021;-75
2021/05/19 01:29:59;;;;;;;11.70;5.43;;;8.20;99.90;;;;;;5064558;28;20055;-75
2021/05/19 01:32:25;;;;;;;20.77;6.32;;;8.30;99.90;;;;;;5064523;28;20056;-74
2021/05/19 01:34:51;;;;;;;11.88;6.07;;;8.30;99.90;;;;;;5064389;28;20079;-74
2021/05/19 01:37:18;;;;;;;11.98;6.10;;;8.30;99.90;;;;;;5066838;28;20029;-74
2021/05/19 01:39:45;;;;;;;14.30;6.38;;;8.30;99.90;;;;;;5068195;28;20087;-75
2021/05/19 01:42:12;;;;;;;13.35;6.90;;;8.20;99.90;;;;;;5067909;28;20021;-74
2021/05/19 01:44:39;;;;;;;12.43;6.97;;;8.20;99.90;;;;;;5068293;28;20031;-74
2021/05/19 01:47:06;;;;;;;14.13;7.03;;;8.20;99.90;;;;;;5068180;28;20029;-74
2021/05/19 01:49:38;;;;;;;15.07;7.05;;;8.20;99.90;;;;;;5068012;28;20072;-74
2021/05/19 01:52:04;;;;;;;10.52;6.10;;;8.10;99.90;;;;;;5067674;28;20041;-74
2021/05/19 01:54:31;;;;;;;13.48;6.35;;;8.10;99.90;;;;;;5068118;28;20025;-73
2021/05/19 01:56:58;;;;;;;13.48;6.78;;;8.10;99.90;;;;;;5067810;28;20071;-74
2021/05/19 01:59:23;;;;;;;13.20;6.85;;;8.00;99.90;;;;;;5066837;28;20492;-73
2021/05/19 02:01:49;;;;;;;9.15;5.65;;;8.00;99.90;;;;;;5067888;28;20044;-73
2021/05/19 02:04:25;;;;;;;13.10;6.22;;;7.90;99.90;;;;;;5080072;28;20020;-74
2021/05/19 02:06:56;;;;;;;12.38;5.65;;;7.90;99.90;;;;;;5066643;28;20021;-73
2021/05/19 02:09:25;;;;;;;8.77;5.20;;;7.90;99.90;;;;;;5067850;28;20029;-73
2021/05/19 02:11:51;;;;;;;9.38;5.68;;;7.90;99.90;;;;;;5067209;28;20542;-73
2021/05/19 02:14:18;;;;;;;12.13;6.07;;;7.90;99.90;;;;;;5067582;28;20143;-73
2021/05/19 02:16:44;;;;;;;11.13;6.30;;;7.80;99.90;;;;;;5067314;28;20045;-73
2021/05/19 02:19:11;;;;;;;13.93;5.82;;;7.80;99.90;;;;;;5067508;28;20025;-73
2021/05/19 02:21:44;;;;;;;15.00;6.50;;;7.80;99.90;;;;;;5067537;28;20047;-73
2021/05/19 02:24:10;;;;;;;15.00;6.32;;;7.80;99.90;;;;;;5082436;28;20037;-73
2021/05/19 02:26:37;;;;;;;9.40;5.38;;;7.80;99.90;;;;;;5067271;28;20040;-73
2021/05/19 02:29:04;;;;;;;13.27;6.55;;;7.70;99.90;;;;;;5067628;28;20029;-74
2021/05/19 02:31:30;;;;;;;9.68;5.72;;;7.70;99.90;;;;;;5067093;28;20029;-74
2021/05/19 02:33:56;;;;;;;12.35;6.22;;;7.70;99.90;;;;;;5067345;28;20108;-73
2021/05/19 02:36:21;;;;;;;16.98;6.88;;;7.70;99.90;;;;;;5067251;28;20412;-73
2021/05/19 02:38:47;;;;;;;12.88;6.22;;;7.70;99.90;;;;;;5065273;28;20081;-73
2021/05/19 02:41:12;;;;;;;13.15;7.13;;;7.70;99.90;;;;;;5066817;28;20378;-73
2021/05/19 02:43:38;;;;;;;15.40;6.22;;;7.70;99.90;;;;;;5066942;28;20029;-73
2021/05/19 02:46:04;;;;;;;16.05;7.03;;;7.70;99.90;;;;;;5066333;28;20025;-73
2021/05/19 02:48:29;;;;;;;17.60;6.80;;;7.60;99.90;;;;;;5065427;28;20025;-73
2021/05/19 02:50:55;;;;;;;10.98;5.57;;;7.60;99.90;;;;;;5067017;28;21200;-73
2021/05/19 02:53:20;;;;;;;13.82;6.82;;;7.60;99.90;;;;;;5066142;28;20049;-73
2021/05/19 02:55:46;;;;;;;13.27;5.95;;;7.60;99.90;;;;;;5066759;28;20076;-73
2021/05/19 02:58:12;;;;;;;16.55;7.00;;;7.60;99.90;;;;;;5066675;28;20036;-74
2021/05/19 03:00:37;;;;;;;11.95;6.03;;;7.60;99.90;;;;;;5081955;28;20467;-73
2021/05/19 03:03:03;;;;;;;12.55;5.97;;;7.50;99.90;;;;;;5066797;28;20033;-74
2021/05/19 03:05:29;;;;;;;11.43;6.10;;;7.60;99.90;;;;;;5065383;28;20025;-74
2021/05/19 03:07:55;;;;;;;13.18;6.03;;;7.50;99.90;;;;;;5066265;28;20064;-73
2021/05/19 03:10:21;;;;;;;11.50;5.68;;;7.50;99.90;;;;;;5066553;28;20080;-73
2021/05/19 03:12:50;;;;;;;14.50;6.28;;;7.50;99.90;;;;;;5064956;28;20025;-73
2021/05/19 03:15:16;;;;;;;12.52;6.63;;;7.50;99.90;;;;;;5066185;28;20037;-73
2021/05/19 03:17:42;;;;;;;11.48;5.28;;;7.50;99.90;;;;;;5066246;28;20123;-74
2021/05/19 03:20:08;;;;;;;10.88;5.78;;;7.50;99.90;;;;;;5066289;28;20033;-73
2021/05/19 03:22:34;;;;;;;10.93;5.93;;;7.50;99.90;;;;;;5066035;28;20021;-73
2021/05/19 03:25:00;;;;;;;11.55;5.13;;;7.40;99.90;;;;;;5066527;28;20040;-74
2021/05/19 03:27:25;;;;;;;13.07;5.40;;;7.40;99.90;;;;;;5066138;28;20092;-73
2021/05/19 03:29:51;;;;;;;13.23;6.28;;;7.40;99.90;;;;;;5064857;28;20021;-72
2021/05/19 03:32:16;;;;;;;11.27;5.72;;;7.40;99.90;;;;;;5066235;28;20052;-73
2021/05/19 03:34:42;;;;;;;12.63;5.97;;;7.40;99.90;;;;;;5065718;28;20033;-73
2021/05/19 03:37:08;;;;;;;8.93;4.72;;;7.40;99.90;;;;;;5065899;28;20036;-73
2021/05/19 03:39:33;;;;;;;18.02;6.03;;;7.40;99.90;;;;;;5065980;28;20030;-73
2021/05/19 03:41:59;;;;;;;10.95;5.88;;;7.40;99.90;;;;;;5065793;28;20033;-74
2021/05/19 03:44:25;;;;;;;12.02;5.15;;;7.40;99.90;;;;;;5065998;28;20021;-73
2021/05/19 03:46:50;;;;;;;11.25;5.22;;;7.50;99.90;;;;;;5065839;28;20033;-73
2021/05/19 03:49:16;;;;;;;14.82;6.35;;;7.50;99.90;;;;;;5065459;28;20073;-73
2021/05/19 03:51:43;;;;;;;11.55;4.63;;;7.60;99.90;;;;;;5065343;28;20464;-73
2021/05/19 03:54:09;;;;;;;11.70;5.38;;;7.50;99.90;;;;;;5065430;28;20021;-73
2021/05/19 03:56:34;;;;;;;11.75;5.95;;;7.50;99.90;;;;;;5065195;28;20067;-75
2021/05/19 03:59:00;;;;;;;16.30;6.72;;;7.50;99.90;;;;;;5065717;28;20025;-74
2021/05/19 04:01:25;;;;;;;9.00;4.63;;;7.50;99.90;;;;;;5065612;28;20025;-73
2021/05/19 04:03:51;;;;;;;9.63;4.97;;;7.50;99.90;;;;;;5063906;28;20033;-73
2021/05/19 04:06:22;;;;;;;12.27;5.63;;;7.50;99.90;;;;;;5065357;28;20025;-73
2021/05/19 04:08:47;;;;;;;17.23;5.57;;;7.40;99.90;;;;;;5065149;28;20029;-72
2021/05/19 04:11:13;;;;;;;13.27;5.68;;;7.40;99.90;;;;;;5065090;28;20075;-74
2021/05/19 04:13:38;;;;;;;14.15;5.57;;;7.50;99.90;;;;;;5065826;28;20108;-74
2021/05/19 04:16:05;;;;;;;11.93;5.82;;;7.50;99.90;;;;;;5065188;28;20096;-73
2021/05/19 04:18:31;;;;;;;15.15;6.22;;;7.50;99.90;;;;;;5065446;28;20055;-73
2021/05/19 04:20:56;;;;;;;16.83;7.55;;;7.50;99.90;;;;;;5065163;28;20021;-73
2021/05/19 04:23:25;;;;;;;17.20;7.53;;;7.50;99.90;;;;;;5080221;28;20031;-73
2021/05/19 04:25:52;;;;;;;13.70;6.88;;;7.50;99.90;;;;;;5065227;28;20032;-73
2021/05/19 04:28:17;;;;;;;20.85;8.73;;;7.60;99.90;;;;;;5065239;28;20025;-73
2021/05/19 04:30:43;;;;;;;16.73;8.43;;;7.60;99.90;;;;;;5064595;28;20476;-73
2021/05/19 04:33:08;;;;;;;10.43;6.55;;;7.60;99.90;;;;;;5065030;28;20036;-73
2021/05/19 04:35:35;;;;;;;12.45;6.13;;;7.60;99.90;;;;;;5065011;28;20132;-74
2021/05/19 04:38:01;;;;;;;18.60;6.05;;;7.70;99.90;;;;;;5064646;28;20025;-74
2021/05/19 04:40:27;;;;;;;12.77;6.03;;;7.70;99.90;;;;;;5065111;28;20036;-74
2021/05/19 04:42:52;;;;;;;9.48;4.97;;;7.70;99.90;;;;;;5064871;28;20766;-73
2021/05/19 04:45:18;;;;;;;10.10;4.97;;;7.70;99.90;;;;;;5064496;28;20059;-74
2021/05/19 04:47:43;;;;;;;10.20;5.63;;;7.80;99.90;;;;;;5064844;28;20040;-74
2021/05/19 04:50:10;;;;;;;11.23;5.22;;;7.80;99.90;;;;;;5063175;28;20021;-73
2021/05/19 04:52:36;;;;;;;8.70;4.78;;;7.80;99.90;;;;;;5064145;28;20068;-74
2021/05/19 04:55:04;;;;;;;8.43;3.80;;;7.80;99.90;;;;;;5064732;28;20044;-74
2021/05/19 04:57:30;;;;;;;8.05;4.43;;;7.80;99.90;;;;;;5080032;28;20063;-74
2021/05/19 04:59:56;;;;;;;10.30;4.50;;;7.80;99.90;;;;;;5080056;28;20021;-73
2021/05/19 05:02:21;;;;;;;9.43;4.40;;;7.80;99.90;;;;;;5063423;28;20029;-73
2021/05/19 05:04:47;;;;;;;7.32;4.10;;;7.70;99.90;;;;;;5064197;28;20059;-74
2021/05/19 05:07:12;;;;;;;8.07;4.45;;;7.80;99.90;;;;;;5063253;28;20089;-74
2021/05/19 05:09:38;;;;;;;7.80;4.50;;;7.80;99.90;;;;;;5064068;28;20028;-74
2021/05/19 05:12:04;;;;;;;7.05;3.42;;;7.80;99.90;;;;;;5064605;28;20377;-74
2021/05/19 05:14:30;;;;;;;7.63;4.20;;;7.90;99.90;;;;;;5064612;28;20021;-72
2021/05/19 05:16:55;;;;;;;10.02;4.40;;;8.00;99.90;;;;;;5064717;28;20041;-74
2021/05/19 05:19:21;;;;;;;7.57;3.75;;;8.00;99.90;;;;;;5064227;28;20025;-72
2021/05/19 05:21:46;;;;;;;9.30;4.68;;;8.10;99.90;;;;;;5064214;28;20029;-72
2021/05/19 05:24:12;;;;;;;7.80;3.85;;;8.20;99.90;;;;;;5063073;28;20025;-72
2021/05/19 05:26:38;;;;;;;5.65;3.42;;;8.20;99.90;;;;;;5064029;28;20036;-73
2021/05/19 05:29:04;;;;;;;5.88;3.42;;;8.10;99.90;;;;;;5064404;28;20025;-72
2021/05/19 05:31:30;;;;;;;7.35;3.80;;;8.20;99.90;;;;;;5064520;28;20028;-73
2021/05/19 05:33:56;;;;;;;7.90;3.78;;;8.20;99.90;;;;;;5064086;28;20025;-73
2021/05/19 05:36:21;;;;;;;7.00;4.05;;;8.20;99.90;;;;;;5064085;28;20041;-73
2021/05/19 05:38:47;;;;;;;6.38;3.85;;;8.30;99.90;;;;;;5064114;28;20029;-72
2021/05/19 05:41:13;;;;;;;5.60;3.42;;;8.30;99.90;;;;;;5063604;28;20021;-73
2021/05/19 05:43:38;;;;;;;6.40;3.13;;;8.30;99.90;;;;;;5064108;28;20025;-73
2021/05/19 05:46:04;;;;;;;6.55;3.90;;;8.40;99.90;;;;;;5064231;28;20029;-72
2021/05/19 05:48:30;;;;;;;8.82;3.88;;;8.40;99.90;;;;;;5062206;28;20039;-73
2021/05/19 05:50:58;;;;;;;11.10;4.15;;;8.50;99.90;;;;;;5064060;28;20032;-72
2021/05/19 05:53:23;;;;;;;6.07;3.47;;;8.50;99.90;;;;;;5064067;28;20492;-72
2021/05/19 05:55:52;;;;;;;6.68;3.17;;;8.50;99.90;;;;;;5063784;28;20420;-73
2021/05/19 05:58:17;;;;;;;7.18;4.55;;;8.50;99.90;;;;;;5063831;28;20025;-72
2021/05/19 06:00:43;;;;;;;14.65;3.42;;;8.60;99.90;;;;;;5064192;28;20544;-72
2021/05/19 06:03:09;;;;;;;8.95;4.47;;;8.60;99.90;;;;;;5063448;28;20075;-71
2021/05/19 06:05:35;;;;;;;8.52;4.70;;;8.80;99.90;;;;;;5063868;28;20021;-72
2021/05/19 06:08:02;;;;;;;11.10;5.55;;;8.90;99.90;;;;;;5063950;28;20020;-73
2021/05/19 06:10:28;;;;;;;10.00;5.40;;;9.00;99.90;;;;;;5063741;28;20025;-73
2021/05/19 06:12:54;;;;;;;14.30;6.38;;;9.00;99.90;;;;;;5063875;28;20025;-72
2021/05/19 06:15:19;;;;;;;10.90;5.78;;;9.10;99.90;;;;;;5062535;28;20052;-72
2021/05/19 06:17:45;;;;;;;14.63;7.25;;;9.20;99.90;;;;;;5063687;28;20029;-72
2021/05/19 06:20:11;;;;;;;15.82;7.82;;;9.30;99.90;;;;;;5062912;28;20047;-72
2021/05/19 06:22:37;;;;;;;18.25;8.75;;;9.30;99.90;;;;;;5065313;28;20112;-72
2021/05/19 06:25:03;;;;;;;17.33;8.10;;;9.40;99.90;;;;;;5067186;28;20029;-72
2021/05/19 06:27:29;;;;;;;15.60;7.35;;;9.50;99.90;;;;;;5067676;28;20032;-72
2021/05/19 06:29:55;;;;;;;15.52;7.78;;;9.60;99.90;;;;;;5067136;28;20021;-71
2021/05/19 06:32:20;;;;;;;16.88;7.75;;;9.60;99.90;;;;;;5066871;28;20095;-72
2021/05/19 06:34:46;;;;;;;13.32;7.57;;;9.70;99.90;;;;;;5067288;28;20025;-72
2021/05/19 06:37:11;;;;;;;20.10;7.95;;;9.80;99.90;;;;;;5066816;28;20032;-71
2021/05/19 06:39:37;;;;;;;20.98;8.93;;;9.90;99.90;;;;;;5066947;28;20021;-74
2021/05/19 06:42:03;;;;;;;20.92;8.85;;;10.00;99.90;;;;;;5067289;28;20025;-72
2021/05/19 06:44:29;;;;;;;21.77;9.43;;;10.20;99.90;;;;;;5066756;28;20485;-73
2021/05/19 06:46:55;;;;;;;16.95;8.93;;;10.30;99.90;;;;;;5066676;28;20029;-72
2021/05/19 06:49:20;;;;;;;18.40;10.05;;;10.50;99.90;;;;;;5067539;28;20583;-73
2021/05/19 06:51:46;;;;;;;22.30;9.93;;;10.60;99.90;;;;;;5086399;28;20055;-72
2021/05/19 06:54:13;;;;;;;21.90;10.02;;;10.80;99.90;;;;;;5086472;28;20024;-71
2021/05/19 06:56:46;;;;;;;20.40;9.30;;;11.00;99.90;;;;;;5086607;28;20109;-72
2021/05/19 06:59:13;;;;;;;23.58;9.88;;;11.10;99.90;;;;;;5086472;28;20040;-73
2021/05/19 07:01:39;;;;;;;16.65;7.95;;;11.30;99.90;;;;;;5086011;28;20028;-72
2021/05/19 07:04:05;;;;;;;17.23;8.15;;;11.40;99.90;;;;;;5085333;28;20027;-73
2021/05/19 07:06:31;;;;;;;16.58;7.57;;;11.60;99.90;;;;;;5086496;28;20052;-75
2021/05/19 07:08:57;;;;;;;11.65;5.85;;;11.70;99.90;;;;;;5086687;28;20048;-72
2021/05/19 07:11:23;;;;;;;10.07;5.15;;;11.70;99.90;;;;;;5086521;28;20032;-71
2021/05/19 07:13:50;;;;;;;10.40;4.72;;;11.80;99.90;;;;;;5084987;28;20032;-72
2021/05/19 07:16:19;;;;;;;7.72;4.00;;;11.80;99.90;;;;;;5086415;28;20032;-73
2021/05/19 07:18:45;;;;;;;8.68;4.45;;;11.70;99.90;;;;;;5086290;28;20107;-71
2021/05/19 07:21:11;;;;;;;11.98;4.60;;;11.80;99.90;;;;;;5086124;28;20032;-72
2021/05/19 07:23:37;;;;;;;9.02;4.38;;;11.80;99.90;;;;;;5085996;28;20028;-73
2021/05/19 07:26:04;;;;;;;7.13;4.28;;;12.00;99.90;;;;;;5086345;28;20039;-72
2021/05/19 07:28:29;;;;;;;7.47;3.78;;;12.10;99.90;;;;;;5086357;28;20031;-72
2021/05/19 07:30:55;;;;;;;6.93;3.95;;;12.20;99.90;;;;;;5086423;28;20033;-72
2021/05/19 07:33:20;;;;;;;4.95;2.88;;;12.40;99.90;;;;;;5085493;28;20488;-72
2021/05/19 07:35:46;;;;;;;6.45;3.33;;;12.50;99.90;;;;;;5085820;28;20124;-74
2021/05/19 07:38:12;;;;;;;4.93;2.80;;;12.70;99.90;;;;;;5085529;28;20031;-71
2021/05/19 07:40:40;;;;;;;8.85;3.05;;;12.80;99.90;;;;;;5079444;28;20174;-74
2021/05/19 07:43:06;;;;;;;7.72;3.45;;;12.90;99.90;;;;;;5065140;28;20025;-72
2021/05/19 07:45:33;;;;;;;5.70;3.08;;;13.00;99.90;;;;;;5083175;28;20059;-74
2021/05/19 07:48:00;;;;;;;7.85;3.10;;;13.10;99.90;;;;;;5084547;28;20021;-74
2021/05/19 07:50:26;;;;;;;5.68;2.85;;;13.10;99.90;;;;;;5084152;28;20028;-74
2021/05/19 07:52:54;;;;;;;4.72;2.13;;;13.10;99.90;;;;;;5067602;28;20052;-74
2021/05/19 07:55:29;;;;;;;3.65;1.63;;;13.10;99.90;;;;;;5064771;28;20029;-71
2021/05/19 07:58:02;;;;;;;3.33;2.05;;;13.00;99.90;;;;;;5065255;28;20465;-73
2021/05/19 08:03:00;;;;;;;6.50;2.50;;;12.80;99.90;;;;;;5066315;28;20056;-74
2021/05/19 08:05:25;;;;;;;5.75;2.72;;;12.80;99.90;;;;;;5068034;28;20044;-74
2021/05/19 08:07:51;;;;;;;5.15;2.80;;;12.80;99.90;;;;;;5073499;28;20033;-74
2021/05/19 08:10:17;;;;;;;5.22;2.40;;;12.80;99.90;;;;;;5065365;28;20032;-74
2021/05/19 08:12:42;;;;;;;5.95;2.80;;;12.70;99.90;;;;;;5066748;28;20029;-74
2021/05/19 08:15:09;;;;;;;3.85;2.00;;;12.70;99.90;;;;;;5069480;28;20056;-71
2021/05/19 08:17:35;;;;;;;3.00;1.73;;;12.60;99.90;;;;;;5068792;28;20031;-74
2021/05/19 08:20:00;;;;;;;4.88;2.15;;;12.60;99.90;;;;;;5077763;28;20032;-72
2021/05/19 08:22:26;;;;;;;4.75;2.38;;;12.60;99.90;;;;;;5069264;28;20032;-72
2021/05/19 08:24:52;;;;;;;2.83;1.73;;;12.70;99.90;;;;;;5063950;28;20362;-72
2021/05/19 08:27:17;;;;;;;2.95;1.17;;;12.70;99.90;;;;;;5079686;28;20059;-74
2021/05/19 08:29:44;;;;;;;2.45;1.23;;;12.80;99.90;;;;;;5083527;28;20358;-73
2021/05/19 08:32:10;;;;;;;3.10;1.30;;;12.90;99.90;;;;;;5085094;28;20084;-73
2021/05/19 08:34:35;;;;;;;2.08;1.08;;;12.90;99.90;;;;;;5081427;28;20066;-74
2021/05/19 08:37:02;;;;;;;3.78;1.75;;;13.00;99.90;;;;;;5069170;28;20041;-73
2021/05/19 08:39:28;;;;;;;4.25;1.42;;;13.00;99.90;;;;;;5082745;28;20060;-75
2021/05/19 08:41:54;;;;;;;4.72;2.03;;;13.00;99.90;;;;;;5071596;28;20040;-73
2021/05/19 08:44:20;;;;;;;3.65;1.77;;;13.10;99.90;;;;;;5082271;28;20037;-73
2021/05/19 08:46:54;;;;;;;2.08;1.55;;;13.20;99.90;;;;;;5073604;28;20033;-74
2021/05/19 08:49:20;;;;;;;6.43;2.75;;;13.20;99.90;;;;;;5063219;28;20021;-74
2021/05/19 08:51:46;;;;;;;4.18;2.28;;;13.30;99.90;;;;;;5063228;28;20083;-73
2021/05/19 08:54:12;;;;;;;4.38;1.92;;;13.40;99.90;;;;;;5064550;28;20055;-71
2021/05/19 08:56:43;;;;;;;4.03;1.80;;;13.50;99.90;;;;;;5066464;28;20048;-76
2021/05/19 08:59:09;;;;;;;5.82;1.88;;;13.50;99.90;;;;;;5084107;28;20024;-74
2021/05/19 09:01:43;;;;;;;8.57;1.98;;;13.50;99.90;;;;;;5070188;28;20062;-73
2021/05/19 09:04:16;;;;;;;6.55;2.60;;;13.70;99.90;;;;;;5070439;28;20036;-73
2021/05/19 09:06:42;;;;;;;4.25;1.70;;;13.70;99.90;;;;;;5077563;28;20072;-73
2021/05/19 09:09:35;;;;;;;5.82;1.73;;;13.90;99.90;;;;;;5072005;28;20047;-75
2021/05/19 09:12:13;;;;;;;3.78;2.53;;;14.20;99.90;;;;;;5064730;28;20025;-75
2021/05/19 09:14:59;;;;;;;3.30;2.15;;;14.60;99.90;;;;;;5065824;28;20025;-74
2021/05/19 09:17:33;;;;;;;4.50;2.30;;;15.10;99.90;;;;;;5078368;28;20077;-74
2021/05/19 09:20:05;;;;;;;3.35;2.03;;;15.30;99.90;;;;;;5066433;28;20109;-75
2021/05/19 09:22:33;;;;;;;4.57;2.63;;;15.50;99.90;;;;;;5067418;28;20568;-74
2021/05/19 09:25:13;;;;;;;3.30;2.08;;;15.50;99.90;;;;;;5064613;28;20025;-75
2021/05/19 09:27:41;;;;;;;3.22;1.85;;;15.40;99.90;;;;;;5064430;28;20031;-74
2021/05/19 09:30:08;;;;;;;4.22;2.30;;;15.40;99.90;;;;;;5082379;28;20025;-72
2021/05/19 09:32:39;;;;;;;4.50;2.60;;;15.20;99.90;;;;;;5084586;28;20021;-74
2021/05/19 09:35:06;;;;;;;4.75;2.65;;;15.00;99.90;;;;;;5084294;28;20168;-75
2021/05/19 09:37:33;;;;;;;4.10;1.90;;;15.00;99.90;;;;;;5076529;28;20071;-74
2021/05/19 09:40:00;;;;;;;3.10;1.60;;;15.20;99.90;;;;;;5064476;28;20021;-73
2021/05/19 09:42:36;;;;;;;3.70;1.70;;;15.10;99.90;;;;;;5064272;28;20041;-74
2021/05/19 09:45:20;;;;;;;7.10;2.00;;;15.20;99.90;;;;;;5077172;28;20025;-78
2021/05/19 09:47:46;;;;;;;3.20;1.73;;;15.40;99.90;;;;;;5084283;28;20074;-73
2021/05/19 09:50:18;;;;;;;3.70;1.58;;;15.60;99.90;;;;;;5082947;28;20033;-79
2021/05/19 09:53:05;;;;;;;2.38;1.23;;;15.80;99.90;;;;;;5083702;28;20052;-74
2021/05/19 09:55:32;;;;;;;2.28;1.35;;;16.00;99.90;;;;;;5082861;28;20041;-75
2021/05/19 09:57:59;;;;;;;3.08;1.50;;;16.20;99.90;;;;;;5086544;28;20104;-73
2021/05/19 10:00:26;;;;;;;4.13;1.75;;;16.20;99.90;;;;;;5087907;28;20483;-74
2021/05/19 10:02:54;;;;;;;2.58;1.60;;;15.90;99.90;;;;;;5085980;28;20025;-76
2021/05/19 10:05:24;;;;;;;4.70;1.40;;;15.60;99.90;;;;;;5085870;28;20064;-72
2021/05/19 10:07:50;;;;;;;2.83;1.83;;;15.20;99.90;;;;;;5087697;28;20028;-74
2021/05/19 10:10:15;;;;;;;3.42;1.60;;;15.10;99.90;;;;;;5087578;28;20021;-74
2021/05/19 10:12:41;;;;;;;2.20;1.60;;;15.10;99.90;;;;;;5086082;28;20136;-75
2021/05/19 10:15:31;;;;;;;1.70;1.08;;;15.20;99.90;;;;;;5087010;28;20021;-74
2021/05/19 10:18:09;;;;;;;4.43;1.65;;;15.20;99.90;;;;;;5088111;28;20063;-72
2021/05/19 10:20:40;;;;;;;1.90;1.08;;;15.20;99.90;;;;;;5087308;28;20453;-79
2021/05/19 10:23:07;;;;;;;1.85;1.02;;;15.10;99.90;;;;;;5087656;28;20099;-75
2021/05/19 10:25:39;;;;;;;1.73;0.98;;;15.00;99.90;;;;;;5087811;28;20017;-71
2021/05/19 10:28:08;;;;;;;3.80;2.28;;;15.20;99.90;;;;;;5078699;28;20054;-73
2021/05/19 10:30:42;;;;;;;3.20;1.42;;;15.20;99.90;;;;;;5074611;28;20028;-74
2021/05/19 10:33:37;;;;;;;2.05;1.50;;;15.60;99.90;;;;;;5073826;28;20051;-75
2021/05/19 10:36:24;;;;;;;3.10;1.77;;;16.20;99.90;;;;;;5086127;28;20037;-72
2021/05/19 10:39:09;;;;;;;15.63;2.67;;;16.50;99.90;;;;;;5086759;28;20093;-75
2021/05/19 10:41:37;;;;;;;3.40;2.30;;;16.50;99.90;;;;;;5066694;28;20025;-72
2021/05/19 10:44:10;;;;;;;4.15;2.70;;;16.40;99.90;;;;;;5066903;28;20029;-78
2021/05/19 10:46:54;;;;;;;3.83;2.60;;;16.30;99.90;;;;;;5066809;28;20029;-73
2021/05/19 10:49:20;;;;;;;4.55;3.03;;;16.20;99.90;;;;;;5065697;28;20504;-74
2021/05/19 10:58:21;;;;;;;3.88;2.08;;;16.40;99.90;;;;;;5066588;28;20090;-74
2021/05/19 11:00:47;;;;;;;3.45;2.22;;;16.70;99.90;;;;;;5064333;28;20044;-76
2021/05/19 11:03:14;;;;;;;9.50;2.80;;;16.70;99.90;;;;;;5063556;28;20029;-75
2021/05/19 11:05:53;;;;;;;4.32;2.53;;;16.60;99.90;;;;;;5066125;28;20017;-77
2021/05/19 11:08:18;;;;;;;4.10;2.72;;;16.40;99.90;;;;;;5063860;28;20068;-74
2021/05/19 11:10:48;;;;;;;6.85;2.97;;;16.20;99.90;;;;;;5066340;28;20466;-72
2021/05/19 11:13:19;;;;;;;9.60;2.90;;;16.00;99.90;;;;;;5066491;28;20065;-71
2021/05/19 11:20:53;;;;;;;9.93;3.30;;;15.60;99.90;;;;;;5066490;28;20087;-73
2021/05/19 11:23:19;;;;;;;5.20;2.90;;;15.40;99.90;;;;;;5064606;28;20399;-72
2021/05/19 11:25:45;;;;;;;5.75;3.38;;;15.30;99.90;;;;;;5065851;28;20047;-72
2021/05/19 11:28:12;;;;;;;7.78;3.60;;;15.20;99.90;;;;;;5066251;28;20029;-75
2021/05/19 11:30:38;;;;;;;5.55;3.17;;;15.10;99.90;;;;;;5065891;28;20021;-74
2021/05/19 11:33:15;;;;;;;1.83;1.08;;;15.00;99.90;;;;;;5067172;28;20044;-71
2021/05/19 11:35:52;;;;;;;1.38;0.93;;;14.70;99.90;;;;;;5068482;28;20044;-74
2021/05/19 11:38:19;;;;;;;1.20;0.90;;;14.20;99.90;;;;;;5073260;28;20115;-73
2021/05/19 11:40:50;;;;;;;1.38;1.10;;;13.80;99.90;;;;;;5081759;28;20024;-71
2021/05/19 11:43:17;;;;;;;0.90;0.82;;;13.60;99.90;;;;;;5065299;28;20055;-75
2021/05/19 11:45:52;;;;;;;2.08;0.95;;;13.40;99.90;;;;;;5079090;28;20032;-70
2021/05/19 11:48:28;;;;;;;1.10;0.85;;;13.20;99.90;;;;;;5065187;28;20507;-78
2021/05/19 11:50:55;;;;;;;2.33;1.20;;;13.00;99.90;;;;;;5064211;28;20025;-74
2021/05/19 11:53:21;;;;;;;0.73;0.63;;;12.70;99.90;;;;;;5064573;28;20048;-72
2021/05/19 11:55:52;;;;;;;1.85;0.80;;;12.70;99.90;;;;;;5062604;28;20094;-74
2021/05/19 11:58:22;;;;;;;5.82;1.20;;;12.60;99.90;;;;;;5064874;28;20086;-75
2021/05/19 12:00:56;;;;;;;4.13;1.27;;;12.60;99.90;;;;;;5063109;28;20029;-74
2021/05/19 12:03:23;;;;;;;1.08;0.70;;;12.70;99.90;;;;;;5064959;28;20036;-74
2021/05/19 12:05:54;;;;;;;1.05;0.73;;;13.00;99.90;;;;;;5063144;28;20039;-73
2021/05/19 12:08:23;;;;;;;0.75;0.60;;;13.70;99.90;;;;;;5065599;28;20025;-76
2021/05/19 12:11:01;;;;;;;7.75;0.70;;;14.60;99.90;;;;;;5064039;28;20048;-75
2021/05/19 12:13:28;;;;;;;0.60;0.40;;;15.40;99.90;;;;;;5064605;28;20359;-75
2021/05/19 12:15:56;;;;;;;4.88;0.60;;;16.10;99.90;;;;;;5064507;28;20495;-78
2021/05/19 12:18:22;;;;;;;1.63;0.80;;;16.50;99.90;;;;;;5064521;28;20493;-75
2021/05/19 12:20:51;;;;;;;0.60;0.47;;;16.90;99.90;;;;;;5063585;28;20035;-76
2021/05/19 12:23:17;;;;;;;0.45;0.30;;;17.20;99.90;;;;;;5064633;28;20025;-76
2021/05/19 12:25:44;;;;;;;2.88;0.50;;;17.50;99.90;;;;;;5079701;28;20535;-78
2021/05/19 12:28:19;;;;;;;0.93;0.10;;;17.70;99.90;;;;;;5063058;28;20025;-79
2021/05/19 12:30:52;;;;;;;0.38;0.28;;;17.70;99.90;;;;;;5062812;28;20025;-81
2021/05/19 12:33:24;;;;;;;1.35;0.40;;;18.00;99.90;;;;;;5068013;28;20025;-78
2021/05/19 12:35:51;;;;;;;1.25;0.63;;;18.30;99.90;;;;;;5063061;28;20113;-74
2021/05/19 12:38:20;;;;;;;0.80;0.40;;;18.70;99.90;;;;;;5062687;28;20025;-76
2021/05/19 12:40:47;;;;;;;1.27;0.40;;;18.90;99.90;;;;;;5066825;28;20025;-74
2021/05/19 12:43:27;;;;;;;0.95;0.55;;;19.20;99.90;;;;;;5064162;28;20025;-73
2021/05/19 12:45:55;;;;;;;2.40;0.40;;;19.60;99.90;;;;;;5084022;28;20032;-72
2021/05/19 12:48:23;;;;;;;0.85;0.45;;;19.80;99.90;;;;;;5075450;28;20028;-74
2021/05/19 12:50:52;;;;;;;0.35;0.30;;;19.90;99.90;;;;;;5064024;28;20047;-73
2021/05/19 12:53:42;;;;;;;1.08;0.70;;;20.00;99.90;;;;;;5063339;28;20040;-74
2021/05/19 12:56:25;;;;;;;1.55;0.60;;;19.80;99.90;;;;;;5063916;28;20041;-73
2021/05/19 12:58:56;;;;;;;1.33;0.57;;;19.90;99.90;;;;;;5064186;28;20029;-75
2021/05/19 13:01:23;;;;;;;1.15;0.70;;;20.20;99.90;;;;;;5062357;28;20033;-71
2021/05/19 13:03:48;;;;;;;1.85;1.08;;;19.90;99.90;;;;;;5062390;28;20040;-70
2021/05/19 13:06:15;;;;;;;1.35;0.95;;;19.60;99.90;;;;;;5062539;28;20056;-72
2021/05/19 13:08:41;;;;;;;3.40;1.35;;;19.20;99.90;;;;;;5081684;28;20033;-79